sensor_id;sensor_type;location;lat;lon;timestamp;temperature;humidity
16172;DHT22;8192;53.596;10.166;2024-01-25T00:00:25;7.50;99.90
16172;DHT22;8192;53.596;10.166;2024-01-25T00:02:52;7.50;99.90
16172;DHT22;8192;53.596;10.166;2024-01-25T00:05:19;7.50;99.90
16172;DHT22;8192;53.596;10.166;2024-01-25T00:07:45;7.50;99.90
16172;DHT22;8192;53.596;10.166;2024-01-25T00:10:12;7.50;99.90
16172;DHT22;8192;53.596;10.166;2024-01-25T00:12:40;7.60;99.90
16172;DHT22;8192;53.596;10.166;2024-01-25T00:15:09;7.60;99.90
16172;DHT22;8192;53.596;10.166;2024-01-25T00:17:36;7.50;99.90
16172;DHT22;8192;53.596;10.166;2024-01-25T00:20:04;7.50;99.90
16172;DHT22;8192;53.596;10.166;2024-01-25T00:22:31;7.50;99.90
16172;DHT22;8192;53.596;10.166;2024-01-25T00:24:59;7.50;99.90
16172;DHT22;8192;53.596;10.166;2024-01-25T00:27:26;7.50;99.90
16172;DHT22;8192;53.596;10.166;2024-01-25T00:29:53;7.50;99.90
16172;DHT22;8192;53.596;10.166;2024-01-25T00:32:21;7.50;99.90
16172;DHT22;8192;53.596;10.166;2024-01-25T00:34:48;7.50;99.90
16172;DHT22;8192;53.596;10.166;2024-01-25T00:37:16;7.40;99.90
16172;DHT22;8192;53.596;10.166;2024-01-25T00:39:43;7.40;99.90
16172;DHT22;8192;53.596;10.166;2024-01-25T00:42:12;7.50;99.90
16172;DHT22;8192;53.596;10.166;2024-01-25T00:44:40;7.40;99.90
16172;DHT22;8192;53.596;10.166;2024-01-25T00:47:08;7.50;99.90
16172;DHT22;8192;53.596;10.166;2024-01-25T00:49:38;7.40;99.90
16172;DHT22;8192;53.596;10.166;2024-01-25T00:52:06;7.40;99.90
16172;DHT22;8192;53.596;10.166;2024-01-25T00:54:33;7.50;99.90
16172;DHT22;8192;53.596;10.166;2024-01-25T00:57:01;7.40;99.90
16172;DHT22;8192;53.596;10.166;2024-01-25T00:59:28;7.50;99.90
16172;DHT22;8192;53.596;10.166;2024-01-25T01:01:55;7.40;99.90
16172;DHT22;8192;53.596;10.166;2024-01-25T01:04:25;7.50;99.90
16172;DHT22;8192;53.596;10.166;2024-01-25T01:06:55;7.50;99.90
16172;DHT22;8192;53.596;10.166;2024-01-25T01:09:21;7.50;99.90
16172;DHT22;8192;53.596;10.166;2024-01-25T01:11:48;7.40;99.90
16172;DHT22;8192;53.596;10.166;2024-01-25T01:14:17;7.50;99.90
16172;DHT22;8192;53.596;10.166;2024-01-25T01:16:43;7.40;99.90
16172;DHT22;8192;53.596;10.166;2024-01-25T01:19:10;7.40;99.90
16172;DHT22;8192;53.596;10.166;2024-01-25T01:21:37;7.40;99.90
16172;DHT22;8192;53.596;10.166;2024-01-25T01:24:10;7.40;99.90
16172;DHT22;8192;53.596;10.166;2024-01-25T01:26:37;7.40;99.90
16172;DHT22;8192;53.596;10.166;2024-01-25T01:29:05;7.40;99.90
16172;DHT22;8192;53.596;10.166;2024-01-25T01:31:31;7.40;99.90
16172;DHT22;8192;53.596;10.166;2024-01-25T01:33:58;7.40;99.90
16172;DHT22;8192;53.596;10.166;2024-01-25T01:36:25;7.30;99.90
16172;DHT22;8192;53.596;10.166;2024-01-25T01:38:52;7.30;99.90
16172;DHT22;8192;53.596;10.166;2024-01-25T01:41:21;7.40;99.90
16172;DHT22;8192;53.596;10.166;2024-01-25T01:43:52;7.40;99.90
16172;DHT22;8192;53.596;10.166;2024-01-25T01:46:29;7.40;99.90
16172;DHT22;8192;53.596;10.166;2024-01-25T01:48:58;7.50;99.90
16172;DHT22;8192;53.596;10.166;2024-01-25T01:51:25;7.50;99.90
16172;DHT22;8192;53.596;10.166;2024-01-25T01:53:53;7.50;99.90
16172;DHT22;8192;53.596;10.166;2024-01-25T01:56:24;7.50;99.90
16172;DHT22;8192;53.596;10.166;2024-01-25T01:58:52;7.50;99.90
16172;DHT22;8192;53.596;10.166;2024-01-25T02:01:21;7.50;99.90
16172;DHT22;8192;53.596;10.166;2024-01-25T02:03:47;7.50;99.90
16172;DHT22;8192;53.596;10.166;2024-01-25T02:06:14;7.50;99.90
16172;DHT22;8192;53.596;10.166;2024-01-25T02:08:41;7.50;99.90
16172;DHT22;8192;53.596;10.166;2024-01-25T02:11:11;7.50;99.90
16172;DHT22;8192;53.596;10.166;2024-01-25T02:13:40;7.50;99.90
16172;DHT22;8192;53.596;10.166;2024-01-25T02:16:07;7.60;99.90
16172;DHT22;8192;53.596;10.166;2024-01-25T02:18:35;7.60;99.90
16172;DHT22;8192;53.596;10.166;2024-01-25T02:21:02;7.60;99.90
16172;DHT22;8192;53.596;10.166;2024-01-25T02:23:30;7.50;99.90
16172;DHT22;8192;53.596;10.166;2024-01-25T02:25:57;7.50;99.90
16172;DHT22;8192;53.596;10.166;2024-01-25T02:28:24;7.50;99.90
16172;DHT22;8192;53.596;10.166;2024-01-25T02:30:52;7.50;99.90
16172;DHT22;8192;53.596;10.166;2024-01-25T02:33:19;7.50;99.90
16172;DHT22;8192;53.596;10.166;2024-01-25T02:35:46;7.50;99.90
16172;DHT22;8192;53.596;10.166;2024-01-25T02:38:13;7.40;99.90
16172;DHT22;8192;53.596;10.166;2024-01-25T02:40:41;7.50;99.90
16172;DHT22;8192;53.596;10.166;2024-01-25T02:43:08;7.40;99.90
16172;DHT22;8192;53.596;10.166;2024-01-25T02:45:35;7.40;99.90
16172;DHT22;8192;53.596;10.166;2024-01-25T02:48:02;7.40;99.90
16172;DHT22;8192;53.596;10.166;2024-01-25T02:50:29;7.50;99.90
16172;DHT22;8192;53.596;10.166;2024-01-25T02:52:56;7.50;99.90
16172;DHT22;8192;53.596;10.166;2024-01-25T02:55:23;7.50;99.90
16172;DHT22;8192;53.596;10.166;2024-01-25T02:57:52;7.50;99.90
16172;DHT22;8192;53.596;10.166;2024-01-25T03:00:19;7.50;99.90
16172;DHT22;8192;53.596;10.166;2024-01-25T03:02:46;7.50;99.90
16172;DHT22;8192;53.596;10.166;2024-01-25T03:05:13;7.50;99.90
16172;DHT22;8192;53.596;10.166;2024-01-25T03:07:40;7.50;99.90
16172;DHT22;8192;53.596;10.166;2024-01-25T03:10:08;7.50;99.90
16172;DHT22;8192;53.596;10.166;2024-01-25T03:12:34;7.50;99.90
16172;DHT22;8192;53.596;10.166;2024-01-25T03:15:05;7.50;99.90
16172;DHT22;8192;53.596;10.166;2024-01-25T03:17:32;7.50;99.90
16172;DHT22;8192;53.596;10.166;2024-01-25T03:20:00;7.50;99.90
16172;DHT22;8192;53.596;10.166;2024-01-25T03:22:27;7.40;99.90
16172;DHT22;8192;53.596;10.166;2024-01-25T03:24:54;7.50;99.90
16172;DHT22;8192;53.596;10.166;2024-01-25T03:27:21;7.40;99.90
16172;DHT22;8192;53.596;10.166;2024-01-25T03:29:48;7.50;99.90
16172;DHT22;8192;53.596;10.166;2024-01-25T03:32:16;7.50;99.90
16172;DHT22;8192;53.596;10.166;2024-01-25T03:34:43;7.50;99.90
16172;DHT22;8192;53.596;10.166;2024-01-25T03:37:10;7.50;99.90
16172;DHT22;8192;53.596;10.166;2024-01-25T03:39:38;7.50;99.90
16172;DHT22;8192;53.596;10.166;2024-01-25T03:42:04;7.50;99.90
16172;DHT22;8192;53.596;10.166;2024-01-25T03:44:31;7.50;99.90
16172;DHT22;8192;53.596;10.166;2024-01-25T03:46:58;7.50;99.90
16172;DHT22;8192;53.596;10.166;2024-01-25T03:49:27;7.50;99.90
16172;DHT22;8192;53.596;10.166;2024-01-25T03:51:54;7.60;99.90
16172;DHT22;8192;53.596;10.166;2024-01-25T03:54:20;7.50;99.90
16172;DHT22;8192;53.596;10.166;2024-01-25T03:56:47;7.50;99.90
16172;DHT22;8192;53.596;10.166;2024-01-25T03:59:14;7.50;99.90
16172;DHT22;8192;53.596;10.166;2024-01-25T04:01:42;7.50;99.90
16172;DHT22;8192;53.596;10.166;2024-01-25T04:04:09;7.50;99.90
16172;DHT22;8192;53.596;10.166;2024-01-25T04:06:41;7.40;99.90
16172;DHT22;8192;53.596;10.166;2024-01-25T04:09:08;7.40;99.90
16172;DHT22;8192;53.596;10.166;2024-01-25T04:11:36;7.40;99.90
16172;DHT22;8192;53.596;10.166;2024-01-25T04:14:03;7.40;99.90
16172;DHT22;8192;53.596;10.166;2024-01-25T04:16:30;7.50;99.90
16172;DHT22;8192;53.596;10.166;2024-01-25T04:18:57;7.40;99.90
16172;DHT22;8192;53.596;10.166;2024-01-25T04:21:24;7.40;99.90
16172;DHT22;8192;53.596;10.166;2024-01-25T04:23:52;7.40;99.90
16172;DHT22;8192;53.596;10.166;2024-01-25T04:26:19;7.40;99.90
16172;DHT22;8192;53.596;10.166;2024-01-25T04:28:46;7.50;99.90
16172;DHT22;8192;53.596;10.166;2024-01-25T04:31:13;7.40;99.90
16172;DHT22;8192;53.596;10.166;2024-01-25T04:33:43;7.40;99.90
16172;DHT22;8192;53.596;10.166;2024-01-25T04:36:10;7.40;99.90
16172;DHT22;8192;53.596;10.166;2024-01-25T04:38:37;7.40;99.90
16172;DHT22;8192;53.596;10.166;2024-01-25T04:41:06;7.40;99.90
16172;DHT22;8192;53.596;10.166;2024-01-25T04:43:34;7.30;99.90
16172;DHT22;8192;53.596;10.166;2024-01-25T04:46:01;7.30;99.90
16172;DHT22;8192;53.596;10.166;2024-01-25T04:48:28;7.30;99.90
16172;DHT22;8192;53.596;10.166;2024-01-25T04:50:56;7.30;99.90
16172;DHT22;8192;53.596;10.166;2024-01-25T04:53:23;7.20;99.90
16172;DHT22;8192;53.596;10.166;2024-01-25T04:55:50;7.30;99.90
16172;DHT22;8192;53.596;10.166;2024-01-25T04:58:19;7.30;99.90
16172;DHT22;8192;53.596;10.166;2024-01-25T05:00:45;7.30;99.90
16172;DHT22;8192;53.596;10.166;2024-01-25T05:03:12;7.30;99.90
16172;DHT22;8192;53.596;10.166;2024-01-25T05:05:39;7.30;99.90
16172;DHT22;8192;53.596;10.166;2024-01-25T05:08:06;7.30;99.90
16172;DHT22;8192;53.596;10.166;2024-01-25T05:10:33;7.20;99.90
16172;DHT22;8192;53.596;10.166;2024-01-25T05:13:00;7.30;99.90
16172;DHT22;8192;53.596;10.166;2024-01-25T05:15:28;7.20;99.90
16172;DHT22;8192;53.596;10.166;2024-01-25T05:17:55;7.30;99.90
16172;DHT22;8192;53.596;10.166;2024-01-25T05:20:22;7.20;99.90
16172;DHT22;8192;53.596;10.166;2024-01-25T05:22:54;7.10;99.90
16172;DHT22;8192;53.596;10.166;2024-01-25T05:25:20;7.20;99.90
16172;DHT22;8192;53.596;10.166;2024-01-25T05:27:47;7.20;99.90
16172;DHT22;8192;53.596;10.166;2024-01-25T05:30:14;7.20;99.90
16172;DHT22;8192;53.596;10.166;2024-01-25T05:32:44;7.10;99.90
16172;DHT22;8192;53.596;10.166;2024-01-25T05:35:11;7.10;99.90
16172;DHT22;8192;53.596;10.166;2024-01-25T05:37:38;7.20;99.90
16172;DHT22;8192;53.596;10.166;2024-01-25T05:40:06;7.20;99.90
16172;DHT22;8192;53.596;10.166;2024-01-25T05:42:34;7.20;99.90
16172;DHT22;8192;53.596;10.166;2024-01-25T05:45:02;7.20;99.90
16172;DHT22;8192;53.596;10.166;2024-01-25T05:47:29;7.20;99.90
16172;DHT22;8192;53.596;10.166;2024-01-25T05:49:57;7.20;99.90
16172;DHT22;8192;53.596;10.166;2024-01-25T05:52:24;7.10;99.90
16172;DHT22;8192;53.596;10.166;2024-01-25T05:54:52;7.10;99.90
16172;DHT22;8192;53.596;10.166;2024-01-25T05:57:19;7.10;99.90
16172;DHT22;8192;53.596;10.166;2024-01-25T05:59:46;7.10;99.90
16172;DHT22;8192;53.596;10.166;2024-01-25T06:02:13;7.10;99.90
16172;DHT22;8192;53.596;10.166;2024-01-25T06:04:40;7.10;99.90
16172;DHT22;8192;53.596;10.166;2024-01-25T06:07:08;7.10;99.90
16172;DHT22;8192;53.596;10.166;2024-01-25T06:09:36;7.00;99.90
16172;DHT22;8192;53.596;10.166;2024-01-25T06:12:03;7.00;99.90
16172;DHT22;8192;53.596;10.166;2024-01-25T06:14:30;7.10;99.90
16172;DHT22;8192;53.596;10.166;2024-01-25T06:16:57;7.10;99.90
16172;DHT22;8192;53.596;10.166;2024-01-25T06:19:24;7.10;99.90
16172;DHT22;8192;53.596;10.166;2024-01-25T06:21:51;7.10;99.90
16172;DHT22;8192;53.596;10.166;2024-01-25T06:24:19;7.10;99.90
16172;DHT22;8192;53.596;10.166;2024-01-25T06:26:46;7.10;99.90
16172;DHT22;8192;53.596;10.166;2024-01-25T06:29:19;7.10;99.90
16172;DHT22;8192;53.596;10.166;2024-01-25T06:31:46;7.10;99.90
16172;DHT22;8192;53.596;10.166;2024-01-25T06:34:13;7.10;99.90
16172;DHT22;8192;53.596;10.166;2024-01-25T06:36:40;7.10;99.90
16172;DHT22;8192;53.596;10.166;2024-01-25T06:39:07;7.00;99.90
16172;DHT22;8192;53.596;10.166;2024-01-25T06:41:35;7.00;99.90
16172;DHT22;8192;53.596;10.166;2024-01-25T06:44:02;7.00;99.90
16172;DHT22;8192;53.596;10.166;2024-01-25T06:46:44;7.00;99.90
16172;DHT22;8192;53.596;10.166;2024-01-25T06:49:11;7.00;99.90
16172;DHT22;8192;53.596;10.166;2024-01-25T06:51:39;7.00;99.90
16172;DHT22;8192;53.596;10.166;2024-01-25T06:54:06;7.10;99.90
16172;DHT22;8192;53.596;10.166;2024-01-25T06:56:36;7.10;99.90
16172;DHT22;8192;53.596;10.166;2024-01-25T06:59:08;7.10;99.90
16172;DHT22;8192;53.596;10.166;2024-01-25T07:01:35;7.10;99.90
16172;DHT22;8192;53.596;10.166;2024-01-25T07:04:05;7.10;99.90
16172;DHT22;8192;53.596;10.166;2024-01-25T07:06:31;7.10;99.90
16172;DHT22;8192;53.596;10.166;2024-01-25T07:08:58;7.00;99.90
16172;DHT22;8192;53.596;10.166;2024-01-25T07:11:25;6.90;99.90
16172;DHT22;8192;53.596;10.166;2024-01-25T07:13:53;7.00;99.90
16172;DHT22;8192;53.596;10.166;2024-01-25T07:16:27;6.90;99.90
16172;DHT22;8192;53.596;10.166;2024-01-25T07:18:55;6.90;99.90
16172;DHT22;8192;53.596;10.166;2024-01-25T07:21:22;6.90;99.90
16172;DHT22;8192;53.596;10.166;2024-01-25T07:23:49;6.90;99.90
16172;DHT22;8192;53.596;10.166;2024-01-25T07:26:17;6.90;99.90
16172;DHT22;8192;53.596;10.166;2024-01-25T07:28:44;6.90;99.90
16172;DHT22;8192;53.596;10.166;2024-01-25T07:31:13;7.00;99.90
16172;DHT22;8192;53.596;10.166;2024-01-25T07:33:40;7.00;99.90
16172;DHT22;8192;53.596;10.166;2024-01-25T07:36:07;7.00;99.90
16172;DHT22;8192;53.596;10.166;2024-01-25T07:38:34;7.00;99.90
16172;DHT22;8192;53.596;10.166;2024-01-25T07:41:01;7.00;99.90
16172;DHT22;8192;53.596;10.166;2024-01-25T07:43:29;7.00;99.90
16172;DHT22;8192;53.596;10.166;2024-01-25T07:45:56;6.90;99.90
16172;DHT22;8192;53.596;10.166;2024-01-25T07:48:24;6.90;99.90
16172;DHT22;8192;53.596;10.166;2024-01-25T07:50:51;6.80;99.90
16172;DHT22;8192;53.596;10.166;2024-01-25T07:53:18;6.80;99.90
16172;DHT22;8192;53.596;10.166;2024-01-25T07:55:47;6.80;99.90
16172;DHT22;8192;53.596;10.166;2024-01-25T07:58:14;6.90;99.90
16172;DHT22;8192;53.596;10.166;2024-01-25T08:00:41;6.90;99.90
16172;DHT22;8192;53.596;10.166;2024-01-25T08:03:09;6.90;99.90
16172;DHT22;8192;53.596;10.166;2024-01-25T08:05:38;7.00;99.90
16172;DHT22;8192;53.596;10.166;2024-01-25T08:08:05;7.00;99.90
16172;DHT22;8192;53.596;10.166;2024-01-25T08:10:33;7.00;99.90
16172;DHT22;8192;53.596;10.166;2024-01-25T08:13:00;7.00;99.90
16172;DHT22;8192;53.596;10.166;2024-01-25T08:15:27;7.00;99.90
16172;DHT22;8192;53.596;10.166;2024-01-25T08:17:56;7.00;99.90
16172;DHT22;8192;53.596;10.166;2024-01-25T08:20:23;7.10;99.90
16172;DHT22;8192;53.596;10.166;2024-01-25T08:22:51;7.00;99.90
16172;DHT22;8192;53.596;10.166;2024-01-25T08:25:18;7.10;99.90
16172;DHT22;8192;53.596;10.166;2024-01-25T08:27:45;7.10;99.90
16172;DHT22;8192;53.596;10.166;2024-01-25T08:30:13;7.10;99.90
16172;DHT22;8192;53.596;10.166;2024-01-25T08:32:45;7.10;99.90
16172;DHT22;8192;53.596;10.166;2024-01-25T08:35:12;7.10;99.90
16172;DHT22;8192;53.596;10.166;2024-01-25T08:37:39;7.10;99.90
16172;DHT22;8192;53.596;10.166;2024-01-25T08:40:09;7.10;99.90
16172;DHT22;8192;53.596;10.166;2024-01-25T08:42:36;7.10;99.90
16172;DHT22;8192;53.596;10.166;2024-01-25T08:45:04;7.00;99.90
16172;DHT22;8192;53.596;10.166;2024-01-25T08:47:34;7.10;99.90
16172;DHT22;8192;53.596;10.166;2024-01-25T08:50:01;7.10;99.90
16172;DHT22;8192;53.596;10.166;2024-01-25T08:52:29;7.10;99.90
16172;DHT22;8192;53.596;10.166;2024-01-25T08:54:56;7.10;99.90
16172;DHT22;8192;53.596;10.166;2024-01-25T08:57:24;7.10;99.90
16172;DHT22;8192;53.596;10.166;2024-01-25T08:59:56;7.10;99.90
16172;DHT22;8192;53.596;10.166;2024-01-25T09:02:24;7.20;99.90
16172;DHT22;8192;53.596;10.166;2024-01-25T09:04:53;7.30;99.90
16172;DHT22;8192;53.596;10.166;2024-01-25T09:07:20;7.30;99.90
16172;DHT22;8192;53.596;10.166;2024-01-25T09:09:47;7.30;99.90
16172;DHT22;8192;53.596;10.166;2024-01-25T09:12:14;7.40;99.90
16172;DHT22;8192;53.596;10.166;2024-01-25T09:14:43;7.40;99.90
16172;DHT22;8192;53.596;10.166;2024-01-25T09:17:10;7.40;99.90
16172;DHT22;8192;53.596;10.166;2024-01-25T09:19:37;7.40;99.90
16172;DHT22;8192;53.596;10.166;2024-01-25T09:22:03;7.40;99.90
16172;DHT22;8192;53.596;10.166;2024-01-25T09:24:31;7.40;99.90
16172;DHT22;8192;53.596;10.166;2024-01-25T09:27:00;7.50;99.90
16172;DHT22;8192;53.596;10.166;2024-01-25T09:29:27;7.50;99.90
16172;DHT22;8192;53.596;10.166;2024-01-25T09:31:55;7.50;99.90
16172;DHT22;8192;53.596;10.166;2024-01-25T09:34:22;7.60;99.90
16172;DHT22;8192;53.596;10.166;2024-01-25T09:36:49;7.60;99.90
16172;DHT22;8192;53.596;10.166;2024-01-25T09:39:16;7.50;99.90
16172;DHT22;8192;53.596;10.166;2024-01-25T09:41:44;7.50;99.90
16172;DHT22;8192;53.596;10.166;2024-01-25T09:44:11;7.60;99.90
16172;DHT22;8192;53.596;10.166;2024-01-25T09:46:38;7.60;99.90
16172;DHT22;8192;53.596;10.166;2024-01-25T09:49:08;7.60;99.90
16172;DHT22;8192;53.596;10.166;2024-01-25T09:51:37;7.70;99.90
16172;DHT22;8192;53.596;10.166;2024-01-25T09:54:05;7.50;99.90
16172;DHT22;8192;53.596;10.166;2024-01-25T09:56:33;7.60;99.90
16172;DHT22;8192;53.596;10.166;2024-01-25T09:59:01;7.60;99.90
16172;DHT22;8192;53.596;10.166;2024-01-25T10:01:28;7.60;99.90
16172;DHT22;8192;53.596;10.166;2024-01-25T10:03:55;7.60;99.90
16172;DHT22;8192;53.596;10.166;2024-01-25T10:06:24;7.70;99.90
16172;DHT22;8192;53.596;10.166;2024-01-25T10:08:52;7.80;99.90
16172;DHT22;8192;53.596;10.166;2024-01-25T10:11:19;7.80;99.90
16172;DHT22;8192;53.596;10.166;2024-01-25T10:13:47;7.80;99.90
16172;DHT22;8192;53.596;10.166;2024-01-25T10:16:17;7.60;99.90
16172;DHT22;8192;53.596;10.166;2024-01-25T10:18:46;7.70;99.90
16172;DHT22;8192;53.596;10.166;2024-01-25T10:21:14;7.60;99.90
16172;DHT22;8192;53.596;10.166;2024-01-25T10:23:45;7.60;99.90
16172;DHT22;8192;53.596;10.166;2024-01-25T10:26:14;7.70;99.90
16172;DHT22;8192;53.596;10.166;2024-01-25T10:28:42;7.60;99.90
16172;DHT22;8192;53.596;10.166;2024-01-25T10:31:09;7.60;99.90
16172;DHT22;8192;53.596;10.166;2024-01-25T10:33:38;7.60;99.90
16172;DHT22;8192;53.596;10.166;2024-01-25T10:36:08;7.60;99.90
16172;DHT22;8192;53.596;10.166;2024-01-25T10:38:38;7.60;99.90
16172;DHT22;8192;53.596;10.166;2024-01-25T10:41:06;7.60;99.90
16172;DHT22;8192;53.596;10.166;2024-01-25T10:43:33;7.60;99.90
16172;DHT22;8192;53.596;10.166;2024-01-25T10:46:07;7.70;99.90
16172;DHT22;8192;53.596;10.166;2024-01-25T10:48:35;7.80;99.90
16172;DHT22;8192;53.596;10.166;2024-01-25T10:51:03;7.80;99.90
16172;DHT22;8192;53.596;10.166;2024-01-25T10:53:32;7.80;99.90
16172;DHT22;8192;53.596;10.166;2024-01-25T10:56:01;7.80;99.90
16172;DHT22;8192;53.596;10.166;2024-01-25T10:58:33;7.90;99.90
16172;DHT22;8192;53.596;10.166;2024-01-25T11:01:02;8.00;99.90
16172;DHT22;8192;53.596;10.166;2024-01-25T11:03:29;7.90;99.90
16172;DHT22;8192;53.596;10.166;2024-01-25T11:06:06;7.80;99.90
16172;DHT22;8192;53.596;10.166;2024-01-25T11:08:33;7.80;99.90
16172;DHT22;8192;53.596;10.166;2024-01-25T11:11:05;7.80;99.90
16172;DHT22;8192;53.596;10.166;2024-01-25T11:13:34;7.80;99.90
16172;DHT22;8192;53.596;10.166;2024-01-25T11:16:12;7.80;99.90
16172;DHT22;8192;53.596;10.166;2024-01-25T11:18:48;7.80;99.90
16172;DHT22;8192;53.596;10.166;2024-01-25T11:21:22;7.90;99.90
16172;DHT22;8192;53.596;10.166;2024-01-25T11:23:59;7.90;99.90
16172;DHT22;8192;53.596;10.166;2024-01-25T11:26:27;7.90;99.90
16172;DHT22;8192;53.596;10.166;2024-01-25T11:28:57;8.00;99.90
16172;DHT22;8192;53.596;10.166;2024-01-25T11:31:27;8.00;99.90
16172;DHT22;8192;53.596;10.166;2024-01-25T11:33:59;8.00;99.90
16172;DHT22;8192;53.596;10.166;2024-01-25T11:36:27;8.10;99.90
16172;DHT22;8192;53.596;10.166;2024-01-25T11:38:54;8.20;99.90
16172;DHT22;8192;53.596;10.166;2024-01-25T11:41:22;8.00;99.90
16172;DHT22;8192;53.596;10.166;2024-01-25T11:43:50;8.00;99.90
16172;DHT22;8192;53.596;10.166;2024-01-25T11:46:19;8.00;99.90
16172;DHT22;8192;53.596;10.166;2024-01-25T11:48:46;8.00;99.90
16172;DHT22;8192;53.596;10.166;2024-01-25T11:51:13;8.00;99.90
16172;DHT22;8192;53.596;10.166;2024-01-25T11:53:40;8.20;99.90
16172;DHT22;8192;53.596;10.166;2024-01-25T11:56:09;8.10;99.90
16172;DHT22;8192;53.596;10.166;2024-01-25T11:58:37;8.00;99.90
16172;DHT22;8192;53.596;10.166;2024-01-25T12:01:06;8.10;99.90
16172;DHT22;8192;53.596;10.166;2024-01-25T12:03:36;8.10;99.90
16172;DHT22;8192;53.596;10.166;2024-01-25T12:06:03;8.10;99.90
16172;DHT22;8192;53.596;10.166;2024-01-25T12:08:31;8.00;99.90
16172;DHT22;8192;53.596;10.166;2024-01-25T12:11:05;8.00;99.90
16172;DHT22;8192;53.596;10.166;2024-01-25T12:13:33;8.00;99.90
16172;DHT22;8192;53.596;10.166;2024-01-25T12:16:02;8.00;99.90
16172;DHT22;8192;53.596;10.166;2024-01-25T12:18:30;8.00;99.90
16172;DHT22;8192;53.596;10.166;2024-01-25T12:21:00;7.80;99.90
16172;DHT22;8192;53.596;10.166;2024-01-25T12:23:34;7.90;99.90
16172;DHT22;8192;53.596;10.166;2024-01-25T12:26:01;7.90;99.90
16172;DHT22;8192;53.596;10.166;2024-01-25T12:28:30;7.90;99.90
16172;DHT22;8192;53.596;10.166;2024-01-25T12:30:57;7.90;99.90
16172;DHT22;8192;53.596;10.166;2024-01-25T12:33:25;7.90;99.90
16172;DHT22;8192;53.596;10.166;2024-01-25T12:35:51;7.80;99.90
16172;DHT22;8192;53.596;10.166;2024-01-25T12:38:21;7.80;99.90
16172;DHT22;8192;53.596;10.166;2024-01-25T12:40:49;7.80;99.90
16172;DHT22;8192;53.596;10.166;2024-01-25T12:43:16;7.90;99.90
16172;DHT22;8192;53.596;10.166;2024-01-25T12:45:43;7.80;99.90
16172;DHT22;8192;53.596;10.166;2024-01-25T12:48:11;7.80;99.90
16172;DHT22;8192;53.596;10.166;2024-01-25T12:50:38;7.80;99.90
16172;DHT22;8192;53.596;10.166;2024-01-25T12:53:05;7.80;99.90
16172;DHT22;8192;53.596;10.166;2024-01-25T12:55:34;7.90;99.90
16172;DHT22;8192;53.596;10.166;2024-01-25T12:58:01;7.80;99.90
16172;DHT22;8192;53.596;10.166;2024-01-25T13:00:28;7.90;99.90
16172;DHT22;8192;53.596;10.166;2024-01-25T13:02:55;7.80;99.90
16172;DHT22;8192;53.596;10.166;2024-01-25T13:05:23;7.70;99.90
16172;DHT22;8192;53.596;10.166;2024-01-25T13:07:50;7.60;99.90
16172;DHT22;8192;53.596;10.166;2024-01-25T13:10:17;7.60;99.90
16172;DHT22;8192;53.596;10.166;2024-01-25T13:12:47;7.60;99.90
16172;DHT22;8192;53.596;10.166;2024-01-25T13:15:14;7.70;99.90
16172;DHT22;8192;53.596;10.166;2024-01-25T13:17:42;7.70;99.90
16172;DHT22;8192;53.596;10.166;2024-01-25T13:20:09;7.70;99.90
16172;DHT22;8192;53.596;10.166;2024-01-25T13:22:36;7.80;99.90
16172;DHT22;8192;53.596;10.166;2024-01-25T13:25:04;7.80;99.90
16172;DHT22;8192;53.596;10.166;2024-01-25T13:27:31;7.80;99.90
16172;DHT22;8192;53.596;10.166;2024-01-25T13:29:59;7.80;99.90
16172;DHT22;8192;53.596;10.166;2024-01-25T13:32:26;7.80;99.90
16172;DHT22;8192;53.596;10.166;2024-01-25T13:34:53;7.80;99.90
16172;DHT22;8192;53.596;10.166;2024-01-25T13:37:20;7.70;99.90
16172;DHT22;8192;53.596;10.166;2024-01-25T13:39:48;7.60;99.90
16172;DHT22;8192;53.596;10.166;2024-01-25T13:42:15;7.70;99.90
16172;DHT22;8192;53.596;10.166;2024-01-25T13:44:42;7.70;99.90
16172;DHT22;8192;53.596;10.166;2024-01-25T13:47:11;7.70;99.90
16172;DHT22;8192;53.596;10.166;2024-01-25T13:49:38;7.70;99.90
16172;DHT22;8192;53.596;10.166;2024-01-25T13:52:06;7.80;99.90
16172;DHT22;8192;53.596;10.166;2024-01-25T13:54:33;7.80;99.90
16172;DHT22;8192;53.596;10.166;2024-01-25T13:57:00;7.80;99.90
16172;DHT22;8192;53.596;10.166;2024-01-25T13:59:27;7.90;99.90
16172;DHT22;8192;53.596;10.166;2024-01-25T14:01:54;7.90;99.90
16172;DHT22;8192;53.596;10.166;2024-01-25T14:04:23;7.80;99.90
16172;DHT22;8192;53.596;10.166;2024-01-25T14:06:50;7.90;99.90
16172;DHT22;8192;53.596;10.166;2024-01-25T14:09:16;8.00;99.90
16172;DHT22;8192;53.596;10.166;2024-01-25T14:11:43;8.10;99.90
16172;DHT22;8192;53.596;10.166;2024-01-25T14:14:10;8.00;99.90
16172;DHT22;8192;53.596;10.166;2024-01-25T14:16:37;7.80;99.90
16172;DHT22;8192;53.596;10.166;2024-01-25T14:19:04;8.00;99.90
16172;DHT22;8192;53.596;10.166;2024-01-25T14:21:32;8.00;99.90
16172;DHT22;8192;53.596;10.166;2024-01-25T14:23:59;8.00;99.90
16172;DHT22;8192;53.596;10.166;2024-01-25T14:26:27;8.00;99.90
16172;DHT22;8192;53.596;10.166;2024-01-25T14:29:01;8.00;99.90
16172;DHT22;8192;53.596;10.166;2024-01-25T14:31:36;8.10;99.90
16172;DHT22;8192;53.596;10.166;2024-01-25T14:34:04;8.20;99.90
16172;DHT22;8192;53.596;10.166;2024-01-25T14:36:32;8.30;99.90
16172;DHT22;8192;53.596;10.166;2024-01-25T14:38:59;8.20;99.90
16172;DHT22;8192;53.596;10.166;2024-01-25T14:41:28;8.30;99.90
16172;DHT22;8192;53.596;10.166;2024-01-25T14:43:56;8.30;99.90
16172;DHT22;8192;53.596;10.166;2024-01-25T14:46:25;8.30;99.90
16172;DHT22;8192;53.596;10.166;2024-01-25T14:48:52;8.30;99.90
16172;DHT22;8192;53.596;10.166;2024-01-25T14:51:19;8.20;99.90
16172;DHT22;8192;53.596;10.166;2024-01-25T14:53:47;8.10;99.90
16172;DHT22;8192;53.596;10.166;2024-01-25T14:56:14;8.10;99.90
16172;DHT22;8192;53.596;10.166;2024-01-25T14:58:41;8.00;99.90
16172;DHT22;8192;53.596;10.166;2024-01-25T15:01:17;8.00;99.90
16172;DHT22;8192;53.596;10.166;2024-01-25T15:03:46;8.00;99.90
16172;DHT22;8192;53.596;10.166;2024-01-25T15:06:14;8.00;99.90
16172;DHT22;8192;53.596;10.166;2024-01-25T15:08:41;7.90;99.90
16172;DHT22;8192;53.596;10.166;2024-01-25T15:11:10;8.00;99.90
16172;DHT22;8192;53.596;10.166;2024-01-25T15:13:37;7.90;99.90
16172;DHT22;8192;53.596;10.166;2024-01-25T15:16:04;7.90;99.90
16172;DHT22;8192;53.596;10.166;2024-01-25T15:18:32;7.90;99.90
16172;DHT22;8192;53.596;10.166;2024-01-25T15:20:59;7.90;99.90
16172;DHT22;8192;53.596;10.166;2024-01-25T15:23:26;7.80;99.90
16172;DHT22;8192;53.596;10.166;2024-01-25T15:25:55;7.80;99.90
16172;DHT22;8192;53.596;10.166;2024-01-25T15:28:26;7.90;99.90
16172;DHT22;8192;53.596;10.166;2024-01-25T15:30:54;7.90;99.90
16172;DHT22;8192;53.596;10.166;2024-01-25T15:33:23;8.00;99.90
16172;DHT22;8192;53.596;10.166;2024-01-25T15:35:50;8.00;99.90
16172;DHT22;8192;53.596;10.166;2024-01-25T15:38:17;7.90;99.90
16172;DHT22;8192;53.596;10.166;2024-01-25T15:40:46;8.00;99.90
16172;DHT22;8192;53.596;10.166;2024-01-25T15:43:18;8.00;99.90
16172;DHT22;8192;53.596;10.166;2024-01-25T15:45:56;8.00;99.90
16172;DHT22;8192;53.596;10.166;2024-01-25T15:48:23;7.90;99.90